Time;durP1;ratioP1;P1;durP2;ratioP2;P2;SDS_P1;SDS_P2;PMS_P1;PMS_P2;Temp;Humidity;BMP_temperature;BMP_pressure;BME280_temperature;BME280_humidity;BME280_pressure;Samples;Min_cycle;Max_cycle;Signal;HPM_P1;HPM_P2
2021/12/07 00:02:01;;;;;;;25.55;17.42;;;8.60;94.40;;;;;;5087265;28;20032;-58
2021/12/07 00:04:27;;;;;;;29.50;16.95;;;8.60;94.10;;;;;;5088659;28;20388;-56
2021/12/07 00:06:53;;;;;;;23.13;15.57;;;8.60;93.90;;;;;;5082037;28;20107;-59
2021/12/07 00:09:19;;;;;;;28.60;14.48;;;8.60;94.10;;;;;;5079142;28;20119;-59
2021/12/07 00:11:48;;;;;;;39.78;16.20;;;8.60;94.20;;;;;;5074352;28;20029;-59
2021/12/07 00:14:22;;;;;;;28.67;14.20;;;8.60;94.40;;;;;;5077820;28;20479;-58
2021/12/07 00:16:48;;;;;;;32.30;14.38;;;8.70;94.20;;;;;;5075380;28;20104;-58
2021/12/07 00:19:14;;;;;;;48.17;16.08;;;8.70;94.10;;;;;;5087322;28;20123;-58
2021/12/07 00:21:42;;;;;;;42.78;15.77;;;8.60;93.90;;;;;;5080306;28;20068;-57
2021/12/07 00:24:08;;;;;;;30.38;14.20;;;8.60;93.60;;;;;;5088592;28;20041;-59
2021/12/07 00:26:34;;;;;;;22.75;14.65;;;8.50;93.70;;;;;;5077942;28;20484;-59
2021/12/07 00:29:03;;;;;;;26.02;15.07;;;8.50;93.80;;;;;;5084625;28;20048;-58
2021/12/07 00:31:37;;;;;;;21.10;13.05;;;8.50;93.90;;;;;;5082126;28;20360;-58
2021/12/07 00:37:04;;;;;;;25.73;16.25;;;8.50;93.80;;;;;;5049295;28;20057;-59
2021/12/07 00:39:30;;;;;;;25.08;15.27;;;8.50;93.70;;;;;;5075244;28;20468;-57
2021/12/07 00:41:56;;;;;;;25.67;15.27;;;8.60;93.70;;;;;;5079227;28;20103;-58
2021/12/07 00:44:24;;;;;;;38.75;15.82;;;8.50;93.70;;;;;;5076827;28;20037;-58
2021/12/07 00:46:50;;;;;;;45.30;15.73;;;8.60;93.30;;;;;;5077441;28;20103;-58
2021/12/07 00:49:16;;;;;;;31.42;13.45;;;8.50;92.80;;;;;;5090893;28;20078;-59
2021/12/07 00:51:42;;;;;;;26.05;15.70;;;8.50;93.00;;;;;;5082912;28;20060;-57
2021/12/07 00:54:09;;;;;;;28.05;15.02;;;8.40;92.70;;;;;;5086456;28;20064;-59
2021/12/07 00:56:36;;;;;;;25.30;15.18;;;8.40;92.70;;;;;;5083881;28;20483;-55
2021/12/07 00:59:02;;;;;;;35.85;14.73;;;8.30;92.50;;;;;;5076366;28;20095;-58
2021/12/07 01:01:28;;;;;;;24.27;14.10;;;8.20;92.40;;;;;;5074080;28;20025;-59
2021/12/07 01:03:53;;;;;;;24.33;13.70;;;8.20;92.40;;;;;;5082324;28;20031;-57
2021/12/07 01:06:30;;;;;;;24.55;15.27;;;8.10;92.60;;;;;;5086180;28;20054;-59
2021/12/07 01:25:26;;;;;;;22.77;14.45;;;8.20;94.10;;;;;;5084629;28;20112;-57
2021/12/07 01:27:55;;;;;;;22.67;15.05;;;8.30;94.70;;;;;;5083739;28;20051;-58
2021/12/07 01:30:35;;;;;;;25.23;15.10;;;8.40;95.00;;;;;;5090066;28;20044;-58
2021/12/07 01:38:21;;;;;;;24.25;16.88;;;8.70;95.50;;;;;;5089186;28;20028;-57
2021/12/07 01:51:42;;;;;;;25.33;16.67;;;8.90;93.80;;;;;;5075441;28;20937;-58
2021/12/07 01:59:57;;;;;;;27.45;18.52;;;8.90;93.30;;;;;;5010628;28;20074;-59
2021/12/07 02:02:25;;;;;;;24.85;16.27;;;8.90;93.60;;;;;;5056952;28;20028;-59
2021/12/07 02:04:52;;;;;;;36.03;14.50;;;8.90;93.40;;;;;;5091644;28;20020;-59
2021/12/07 02:07:18;;;;;;;36.70;14.98;;;8.90;93.40;;;;;;5085462;28;20498;-58
2021/12/07 02:09:50;;;;;;;25.35;14.40;;;8.90;93.40;;;;;;5088735;28;20016;-58
2021/12/07 02:12:16;;;;;;;40.63;13.40;;;8.90;93.50;;;;;;5093156;28;20510;-59
2021/12/07 02:14:42;;;;;;;16.00;11.35;;;8.90;93.20;;;;;;5080112;28;20040;-57
2021/12/07 02:17:14;;;;;;;21.77;12.70;;;8.90;93.10;;;;;;5081025;28;20032;-58
2021/12/07 02:19:40;;;;;;;20.90;13.30;;;8.90;93.30;;;;;;5092121;28;20028;-59
2021/12/07 02:22:07;;;;;;;21.88;13.38;;;8.90;93.60;;;;;;5090915;28;20551;-57
2021/12/07 02:24:33;;;;;;;19.98;13.02;;;8.90;93.90;;;;;;5077213;28;20529;-59
2021/12/07 02:27:01;;;;;;;21.00;12.15;;;8.90;93.90;;;;;;5075370;28;20031;-57
2021/12/07 02:29:27;;;;;;;19.40;13.75;;;9.00;93.80;;;;;;5086877;28;20070;-56
2021/12/07 02:31:55;;;;;;;18.80;12.32;;;9.00;93.50;;;;;;5096770;28;20492;-56
2021/12/07 02:34:23;;;;;;;17.25;11.50;;;9.00;93.50;;;;;;5089289;28;20036;-58
2021/12/07 02:36:50;;;;;;;17.50;12.13;;;9.00;93.40;;;;;;5095245;28;20159;-58
2021/12/07 02:39:16;;;;;;;16.90;11.88;;;9.10;93.30;;;;;;5093271;28;20081;-59
2021/12/07 02:41:42;;;;;;;16.65;11.70;;;9.10;93.10;;;;;;5093618;28;20024;-59
2021/12/07 02:44:08;;;;;;;15.68;11.27;;;9.10;92.90;;;;;;5087282;28;20060;-59
2021/12/07 02:46:37;;;;;;;15.20;11.07;;;9.10;92.80;;;;;;5085151;28;20072;-59
2021/12/07 02:49:05;;;;;;;17.00;12.60;;;9.00;92.60;;;;;;5091813;28;20036;-58
2021/12/07 02:51:31;;;;;;;16.02;12.00;;;9.00;92.50;;;;;;5084662;28;20036;-58
2021/12/07 02:53:57;;;;;;;17.20;12.57;;;9.10;92.30;;;;;;5092715;28;20031;-58
2021/12/07 02:56:23;;;;;;;17.77;12.70;;;9.10;92.20;;;;;;5095739;28;20024;-59
2021/12/07 02:58:49;;;;;;;15.25;11.48;;;9.00;92.00;;;;;;5090424;28;20376;-59
2021/12/07 03:01:22;;;;;;;16.10;12.80;;;9.00;91.90;;;;;;5084925;28;20020;-58
2021/12/07 03:04:01;;;;;;;16.70;13.13;;;9.10;91.90;;;;;;5092644;28;20109;-57
2021/12/07 03:06:44;;;;;;;17.17;11.52;;;9.00;91.50;;;;;;5080347;28;20082;-58
2021/12/07 03:28:07;;;;;;;20.48;13.18;;;8.70;91.70;;;;;;5075414;28;20092;-58
2021/12/07 03:30:34;;;;;;;23.17;14.18;;;8.70;91.50;;;;;;5076745;28;20030;-59
2021/12/07 03:33:00;;;;;;;22.85;13.43;;;8.70;91.60;;;;;;5094963;28;20032;-59
2021/12/07 03:35:26;;;;;;;26.10;13.73;;;8.70;91.90;;;;;;5092321;28;20046;-59
2021/12/07 03:37:53;;;;;;;46.15;17.02;;;8.70;92.00;;;;;;5089296;28;20028;-59
2021/12/07 03:40:19;;;;;;;29.70;15.05;;;8.80;92.20;;;;;;5081326;28;20028;-56
2021/12/07 03:42:45;;;;;;;27.88;14.43;;;8.70;92.50;;;;;;5078389;28;20035;-58
2021/12/07 03:45:11;;;;;;;28.20;15.02;;;8.80;92.60;;;;;;5074854;28;20432;-59
2021/12/07 03:47:38;;;;;;;34.58;15.48;;;8.80;92.50;;;;;;5088430;28;20111;-58
2021/12/07 03:50:06;;;;;;;35.70;16.35;;;8.80;92.50;;;;;;5094156;28;20067;-58
2021/12/07 03:52:31;;;;;;;48.63;15.55;;;8.80;92.60;;;;;;5084920;28;20519;-58
2021/12/07 03:54:57;;;;;;;63.25;16.58;;;8.90;93.00;;;;;;5089048;28;20029;-58
2021/12/07 03:57:23;;;;;;;44.80;13.35;;;8.90;93.20;;;;;;5087576;28;20481;-56
2021/12/07 03:59:48;;;;;;;48.00;12.25;;;9.00;93.40;;;;;;5083260;28;20025;-59
2021/12/07 04:02:14;;;;;;;34.65;12.10;;;9.00;93.50;;;;;;5088357;28;20024;-58
2021/12/07 04:04:40;;;;;;;44.83;11.98;;;9.00;93.60;;;;;;5081229;28;20419;-59
2021/12/07 04:07:06;;;;;;;34.75;12.77;;;9.10;93.70;;;;;;5082246;28;20103;-59
2021/12/07 04:09:32;;;;;;;28.30;12.57;;;9.10;93.80;;;;;;5077692;28;20031;-58
2021/12/07 04:11:59;;;;;;;32.72;13.50;;;9.20;93.90;;;;;;5079178;28;20039;-59
2021/12/07 04:14:25;;;;;;;32.15;13.90;;;9.10;94.00;;;;;;5075963;28;20082;-58
2021/12/07 04:16:51;;;;;;;32.45;15.30;;;9.20;94.10;;;;;;5075251;28;20028;-59
2021/12/07 04:19:16;;;;;;;28.75;15.35;;;9.20;94.30;;;;;;5078598;28;20093;-58
2021/12/07 04:21:42;;;;;;;25.45;16.17;;;9.30;94.50;;;;;;5086103;28;20122;-59
2021/12/07 04:24:08;;;;;;;29.65;18.40;;;9.30;94.80;;;;;;5087693;28;20077;-59
2021/12/07 04:26:34;;;;;;;31.25;21.10;;;9.40;95.00;;;;;;5084759;28;20115;-59
2021/12/07 04:29:00;;;;;;;32.00;20.70;;;9.40;95.20;;;;;;5077504;28;20020;-58
2021/12/07 04:31:26;;;;;;;34.78;22.05;;;9.50;95.30;;;;;;5074250;28;20107;-59
2021/12/07 04:33:52;;;;;;;33.88;21.45;;;9.60;95.40;;;;;;5073852;28;20410;-58
2021/12/07 04:36:18;;;;;;;30.75;19.48;;;9.60;95.40;;;;;;5081335;28;20090;-58
2021/12/07 04:38:43;;;;;;;34.97;15.30;;;9.70;95.40;;;;;;5083650;28;20020;-58
2021/12/07 04:41:10;;;;;;;25.60;13.15;;;9.70;94.90;;;;;;5080409;28;20028;-58
2021/12/07 04:43:37;;;;;;;30.30;12.93;;;9.80;94.20;;;;;;5085839;28;20047;-56
2021/12/07 04:46:13;;;;;;;29.20;12.93;;;9.70;93.80;;;;;;5089582;28;20501;-59
2021/12/07 04:49:25;;;;;;;23.65;12.13;;;9.70;93.50;;;;;;5092796;28;20031;-58
2021/12/07 04:59:54;;;;;;;32.42;13.77;;;9.60;92.80;;;;;;5083985;28;20127;-58
2021/12/07 05:02:19;;;;;;;23.20;11.85;;;9.50;92.60;;;;;;5081987;28;20527;-58
2021/12/07 05:04:45;;;;;;;25.73;12.73;;;9.50;92.40;;;;;;5085607;28;20096;-58
2021/12/07 05:07:20;;;;;;;22.27;12.85;;;9.50;92.40;;;;;;5073593;28;20060;-59
2021/12/07 05:14:39;;;;;;;17.58;11.95;;;9.40;92.40;;;;;;5075909;28;20064;-59
2021/12/07 05:38:54;;;;;;;26.08;16.92;;;9.50;93.80;;;;;;5076585;28;20032;-59
2021/12/07 05:41:20;;;;;;;22.42;16.20;;;9.60;94.20;;;;;;5076849;28;20464;-59
2021/12/07 05:43:46;;;;;;;20.83;15.63;;;9.70;94.40;;;;;;5084881;28;20036;-57
2021/12/07 05:46:12;;;;;;;22.30;16.73;;;9.70;94.60;;;;;;5089026;28;20445;-59
2021/12/07 05:48:38;;;;;;;23.73;16.70;;;9.90;94.70;;;;;;5087498;28;20054;-57
2021/12/07 05:51:04;;;;;;;25.92;18.73;;;9.90;94.80;;;;;;5088178;28;20047;-59
2021/12/07 05:53:29;;;;;;;34.97;17.23;;;10.00;95.00;;;;;;5084655;28;20020;-58
2021/12/07 05:55:55;;;;;;;23.92;14.07;;;10.00;94.70;;;;;;5076418;28;20028;-57
2021/12/07 05:58:21;;;;;;;20.55;13.50;;;10.10;94.10;;;;;;5077342;28;20496;-59
2021/12/07 06:00:48;;;;;;;25.80;14.23;;;10.10;93.60;;;;;;5086764;28;20028;-58
2021/12/07 06:03:15;;;;;;;27.58;13.90;;;10.00;93.50;;;;;;5082381;28;20047;-59
2021/12/07 06:05:42;;;;;;;22.88;11.35;;;10.00;93.50;;;;;;5084985;28;20097;-58
2021/12/07 06:08:09;;;;;;;19.90;12.70;;;10.00;93.30;;;;;;5087703;28;20024;-58
2021/12/07 06:10:36;;;;;;;39.63;16.15;;;9.90;93.40;;;;;;5092646;28;20471;-59
2021/12/07 06:13:02;;;;;;;28.88;17.58;;;9.90;93.60;;;;;;5086782;28;20039;-59
2021/12/07 06:15:32;;;;;;;24.40;18.38;;;9.90;93.80;;;;;;5075984;28;20436;-58
2021/12/07 06:17:58;;;;;;;29.02;19.35;;;9.90;94.00;;;;;;5079061;28;20029;-58
2021/12/07 06:20:24;;;;;;;24.55;17.40;;;10.00;94.70;;;;;;5077271;28;20502;-58
2021/12/07 06:22:50;;;;;;;25.15;17.02;;;10.00;94.50;;;;;;5080004;28;20039;-59
2021/12/07 06:25:15;;;;;;;23.85;15.70;;;10.00;94.40;;;;;;5079585;28;20024;-59
2021/12/07 06:27:42;;;;;;;22.15;13.30;;;10.00;94.40;;;;;;5077426;28;20056;-59
2021/12/07 06:30:10;;;;;;;14.00;10.68;;;10.10;94.40;;;;;;5069103;28;20027;-59
2021/12/07 06:32:36;;;;;;;13.57;8.68;;;10.10;94.10;;;;;;5070401;28;20118;-58
2021/12/07 06:35:03;;;;;;;12.30;9.68;;;10.10;93.80;;;;;;5078249;28;20033;-59
2021/12/07 06:37:28;;;;;;;13.68;10.60;;;10.00;93.50;;;;;;5077123;28;20479;-59
2021/12/07 06:39:54;;;;;;;14.27;10.18;;;10.00;93.60;;;;;;5074387;28;20066;-59
2021/12/07 06:42:20;;;;;;;13.45;9.75;;;10.00;93.80;;;;;;5076704;28;20530;-59
2021/12/07 06:44:45;;;;;;;14.13;11.63;;;9.90;93.90;;;;;;5077955;28;20404;-58
2021/12/07 06:47:11;;;;;;;13.48;10.80;;;9.90;94.20;;;;;;5078214;28;20043;-59
2021/12/07 06:49:37;;;;;;;17.13;12.40;;;9.90;94.20;;;;;;5081522;28;20348;-60
2021/12/07 06:52:03;;;;;;;15.52;12.40;;;10.00;94.20;;;;;;5077958;28;20039;-59
2021/12/07 06:54:29;;;;;;;16.55;13.00;;;10.00;94.50;;;;;;5077085;28;20040;-59
2021/12/07 06:56:55;;;;;;;19.52;15.55;;;10.00;94.70;;;;;;5075128;28;20067;-59
2021/12/07 06:59:21;;;;;;;23.65;18.35;;;10.00;94.90;;;;;;5077937;28;20056;-60
2021/12/07 07:01:48;;;;;;;22.42;16.88;;;10.00;95.10;;;;;;5073467;28;20020;-59
2021/12/07 07:04:14;;;;;;;21.08;16.08;;;10.10;95.00;;;;;;5070538;28;20052;-60
2021/12/07 07:06:41;;;;;;;20.00;15.25;;;10.10;95.00;;;;;;5077001;28;20056;-59
2021/12/07 07:09:07;;;;;;;21.92;16.55;;;10.10;95.40;;;;;;5077971;28;20028;-61
2021/12/07 07:11:34;;;;;;;24.15;18.35;;;10.20;95.50;;;;;;5072700;28;20112;-59
2021/12/07 07:14:01;;;;;;;39.53;28.70;;;10.20;95.50;;;;;;5074000;28;20036;-62
2021/12/07 07:16:27;;;;;;;51.67;38.13;;;10.30;95.40;;;;;;5074891;28;20070;-62
2021/12/07 07:18:53;;;;;;;24.75;19.10;;;10.40;95.40;;;;;;5077904;28;20031;-61
2021/12/07 07:21:19;;;;;;;19.60;15.95;;;10.40;95.10;;;;;;5069471;28;20040;-60
2021/12/07 07:23:45;;;;;;;21.05;16.23;;;10.40;94.80;;;;;;5075347;28;20110;-60
2021/12/07 07:26:11;;;;;;;21.95;17.52;;;10.40;94.70;;;;;;5063767;28;20040;-60
2021/12/07 07:28:38;;;;;;;19.13;15.68;;;10.50;94.70;;;;;;5061236;28;22990;-60
2021/12/07 07:31:07;;;;;;;24.58;18.02;;;10.50;94.50;;;;;;5069549;28;20396;-62
2021/12/07 07:33:32;;;;;;;22.88;16.13;;;10.50;94.40;;;;;;5065413;28;20038;-61
2021/12/07 07:35:58;;;;;;;17.77;13.75;;;10.50;94.10;;;;;;5072934;28;20032;-61
2021/12/07 07:38:24;;;;;;;19.80;9.50;;;10.50;93.90;;;;;;5067541;28;20642;-62
2021/12/07 07:40:50;;;;;;;12.23;7.35;;;10.50;93.70;;;;;;5070665;28;20030;-61
2021/12/07 07:43:17;;;;;;;8.45;6.28;;;10.50;93.60;;;;;;5074079;28;20151;-60
2021/12/07 07:45:49;;;;;;;10.77;9.65;;;10.50;93.10;;;;;;5068412;28;20110;-59
2021/12/07 07:48:16;;;;;;;18.38;13.45;;;10.50;93.20;;;;;;5071710;28;20472;-58
2021/12/07 07:50:43;;;;;;;15.63;13.25;;;10.50;93.60;;;;;;5070314;28;20039;-59
2021/12/07 07:53:08;;;;;;;14.75;11.57;;;10.60;93.80;;;;;;5068829;28;20028;-59
2021/12/07 07:55:37;;;;;;;16.17;12.07;;;10.60;94.00;;;;;;5072775;28;20040;-61
2021/12/07 07:58:04;;;;;;;14.00;9.73;;;10.70;93.60;;;;;;5064565;28;20036;-60
2021/12/07 08:00:30;;;;;;;11.10;9.85;;;10.70;93.30;;;;;;5063785;28;20051;-60
2021/12/07 08:02:56;;;;;;;13.27;10.23;;;10.70;92.90;;;;;;5062940;28;20029;-58
2021/12/07 08:05:22;;;;;;;14.70;11.15;;;10.70;92.60;;;;;;5062095;28;20119;-59
2021/12/07 08:07:47;;;;;;;19.02;12.77;;;10.70;92.70;;;;;;5059666;28;20470;-59
2021/12/07 08:10:17;;;;;;;18.75;13.57;;;10.70;92.50;;;;;;5057242;28;20034;-61
2021/12/07 08:12:43;;;;;;;16.23;11.70;;;10.70;92.10;;;;;;5058447;28;20020;-61
2021/12/07 08:15:09;;;;;;;11.90;8.35;;;10.70;91.90;;;;;;5062996;28;20058;-61
2021/12/07 08:17:35;;;;;;;11.27;8.35;;;10.60;91.60;;;;;;5069309;28;20068;-62
2021/12/07 08:20:00;;;;;;;10.02;7.07;;;10.60;91.40;;;;;;5057869;28;20116;-59
2021/12/07 08:22:29;;;;;;;8.30;6.30;;;10.50;91.30;;;;;;5062384;28;20045;-59
2021/12/07 08:24:56;;;;;;;6.88;6.18;;;10.50;91.10;;;;;;5061408;28;20035;-59
2021/12/07 08:27:22;;;;;;;9.57;6.18;;;10.40;91.00;;;;;;5068449;28;20162;-58
2021/12/07 08:29:48;;;;;;;8.02;6.47;;;10.40;90.90;;;;;;5059570;28;20077;-55
2021/12/07 08:32:13;;;;;;;12.23;8.68;;;10.40;90.80;;;;;;5062532;28;20028;-61
2021/12/07 08:34:39;;;;;;;33.80;24.85;;;10.40;90.80;;;;;;5067605;28;20081;-59
2021/12/07 08:37:05;;;;;;;36.60;25.00;;;10.40;91.90;;;;;;5071261;28;20108;-60
2021/12/07 08:39:34;;;;;;;37.38;24.75;;;10.40;92.40;;;;;;5060806;28;20131;-60
2021/12/07 08:42:01;;;;;;;38.03;26.67;;;10.50;92.60;;;;;;5063575;28;20042;-60
2021/12/07 08:44:27;;;;;;;29.58;21.50;;;10.50;92.90;;;;;;5067174;28;20391;-61
2021/12/07 08:46:52;;;;;;;22.65;15.45;;;10.50;92.80;;;;;;5073867;28;20033;-59
2021/12/07 08:49:19;;;;;;;30.45;23.02;;;10.60;92.20;;;;;;5067800;28;20034;-61
2021/12/07 08:51:45;;;;;;;38.97;27.75;;;10.50;92.50;;;;;;5071194;28;20036;-59
2021/12/07 08:54:29;;;;;;;39.45;26.42;;;10.60;93.00;;;;;;5068436;28;20181;-59
2021/12/07 08:59:44;;;;;;;28.83;21.85;;;10.60;93.30;;;;;;5070191;28;20415;-60
2021/12/07 09:02:12;;;;;;;29.42;20.08;;;10.60;93.40;;;;;;5057838;28;20043;-60
2021/12/07 09:04:37;;;;;;;25.83;18.77;;;10.70;93.40;;;;;;5066156;28;20052;-60
2021/12/07 09:07:05;;;;;;;26.63;18.65;;;10.70;93.60;;;;;;5067826;28;20135;-59
2021/12/07 09:09:32;;;;;;;30.75;19.80;;;10.80;93.90;;;;;;5064795;28;20075;-58
2021/12/07 09:11:57;;;;;;;24.15;17.33;;;10.80;94.10;;;;;;5067186;28;20051;-59
2021/12/07 09:14:24;;;;;;;22.95;14.80;;;10.80;94.10;;;;;;5062795;28;21061;-60
2021/12/07 09:16:50;;;;;;;18.55;13.40;;;10.80;93.60;;;;;;5063700;28;20024;-60
2021/12/07 09:19:15;;;;;;;20.40;15.90;;;10.90;93.40;;;;;;5063613;28;20020;-59
2021/12/07 09:21:42;;;;;;;19.55;12.85;;;10.90;93.50;;;;;;5062090;28;20044;-58
2021/12/07 09:24:07;;;;;;;18.95;14.20;;;10.80;93.40;;;;;;5069057;28;20039;-59
2021/12/07 09:26:34;;;;;;;14.23;10.27;;;10.90;93.60;;;;;;5061195;28;20094;-60
2021/12/07 09:29:00;;;;;;;11.70;8.95;;;10.90;93.40;;;;;;5054804;28;20040;-60
2021/12/07 09:31:26;;;;;;;17.25;12.82;;;10.90;93.30;;;;;;5052256;28;20071;-60
2021/12/07 09:33:54;;;;;;;17.67;13.45;;;10.90;93.80;;;;;;5059803;28;20146;-59
2021/12/07 09:36:20;;;;;;;23.15;17.33;;;11.00;94.20;;;;;;5049622;28;20032;-61
2021/12/07 09:38:46;;;;;;;26.05;17.40;;;11.10;94.20;;;;;;5066610;28;20012;-59
2021/12/07 09:41:14;;;;;;;26.52;12.50;;;11.10;94.20;;;;;;5069025;28;20444;-62
2021/12/07 09:43:41;;;;;;;17.30;10.68;;;11.10;93.70;;;;;;5059016;28;20024;-62
2021/12/07 09:46:08;;;;;;;15.80;10.45;;;11.10;93.30;;;;;;5057902;28;20040;-63
2021/12/07 09:48:34;;;;;;;16.85;11.43;;;11.10;93.00;;;;;;5061934;28;20035;-63
2021/12/07 09:51:00;;;;;;;14.98;10.57;;;11.00;93.00;;;;;;5063413;28;20020;-63
2021/12/07 09:53:28;;;;;;;13.43;10.57;;;11.00;93.10;;;;;;5064752;28;20561;-62
2021/12/07 09:55:55;;;;;;;16.40;10.52;;;11.00;93.20;;;;;;5071841;28;20028;-61
2021/12/07 09:58:22;;;;;;;14.52;9.73;;;10.90;93.50;;;;;;5059811;28;20039;-61
2021/12/07 10:00:48;;;;;;;19.17;8.93;;;10.90;93.40;;;;;;5059602;28;20025;-61
2021/12/07 10:03:15;;;;;;;21.65;8.75;;;10.80;93.50;;;;;;5058664;28;20032;-60
2021/12/07 10:05:41;;;;;;;27.48;8.57;;;10.80;93.60;;;;;;5056353;28;20404;-61
2021/12/07 10:08:08;;;;;;;49.65;9.60;;;10.80;93.70;;;;;;5063311;28;20037;-61
2021/12/07 10:10:38;;;;;;;32.33;8.93;;;10.80;93.80;;;;;;5061179;28;20071;-60
2021/12/07 10:13:06;;;;;;;24.75;8.05;;;10.80;93.80;;;;;;5063300;28;20120;-61
2021/12/07 10:15:33;;;;;;;25.88;8.57;;;10.80;93.80;;;;;;5053025;28;20078;-59
2021/12/07 10:18:03;;;;;;;15.40;6.35;;;10.80;93.80;;;;;;5054645;28;20033;-59
2021/12/07 10:20:51;;;;;;;8.20;5.57;;;10.80;93.60;;;;;;5055726;28;20035;-58
2021/12/07 10:23:16;;;;;;;28.48;7.60;;;10.80;93.30;;;;;;5065786;28;20036;-58
2021/12/07 10:26:13;;;;;;;20.08;7.40;;;10.90;93.20;;;;;;5060438;28;20092;-59
2021/12/07 10:28:46;;;;;;;26.73;8.55;;;10.90;93.20;;;;;;5062307;28;20143;-55
2021/12/07 10:31:32;;;;;;;22.00;7.75;;;10.90;93.20;;;;;;5062890;28;20032;-61
2021/12/07 10:34:00;;;;;;;26.83;10.10;;;10.90;93.20;;;;;;5064438;28;20422;-59
2021/12/07 10:36:31;;;;;;;16.30;10.77;;;10.90;93.30;;;;;;5067123;28;20462;-61
2021/12/07 10:38:59;;;;;;;20.23;11.73;;;10.90;93.40;;;;;;5060958;28;20043;-61
2021/12/07 10:41:26;;;;;;;42.45;12.38;;;10.90;93.40;;;;;;5062796;28;20521;-62
2021/12/07 10:44:05;;;;;;;30.63;11.52;;;10.90;93.50;;;;;;5062860;28;20028;-62
2021/12/07 10:46:39;;;;;;;29.83;11.82;;;11.00;93.40;;;;;;5057551;28;20960;-62
2021/12/07 10:49:12;;;;;;;33.72;10.98;;;11.00;93.30;;;;;;5063740;28;20032;-60
2021/12/07 10:51:39;;;;;;;29.20;9.48;;;11.00;93.20;;;;;;5065578;28;20081;-57
2021/12/07 10:54:06;;;;;;;15.43;8.77;;;11.00;92.80;;;;;;5069018;28;20043;-59
2021/12/07 10:56:37;;;;;;;36.78;8.80;;;10.90;92.50;;;;;;5065199;28;20612;-60
2021/12/07 10:59:07;;;;;;;26.90;9.23;;;10.90;92.20;;;;;;5066223;28;20024;-60
2021/12/07 11:01:36;;;;;;;17.10;8.55;;;10.80;92.10;;;;;;5061565;28;20035;-60
2021/12/07 11:04:33;;;;;;;16.30;9.05;;;10.70;91.80;;;;;;5068980;28;20032;-60
2021/12/07 11:07:15;;;;;;;28.05;10.20;;;10.60;91.90;;;;;;5064693;28;20525;-60
2021/12/07 11:09:48;;;;;;;23.63;10.30;;;10.50;92.30;;;;;;5076085;28;20024;-59
2021/12/07 11:12:17;;;;;;;20.08;10.52;;;10.50;92.20;;;;;;5071109;28;20123;-61
2021/12/07 11:14:49;;;;;;;16.83;10.32;;;10.40;92.10;;;;;;5067809;28;20084;-60
2021/12/07 11:17:15;;;;;;;;;;;10.30;92.10;;;;;;5068539;28;20032;-60
2021/12/07 11:19:41;;;;;;;20.02;12.52;;;10.20;92.10;;;;;;5075055;28;19916;-60
2021/12/07 11:22:07;;;;;;;20.38;13.70;;;10.30;92.50;;;;;;5067147;28;21841;-60
2021/12/07 11:24:38;;;;;;;22.10;15.32;;;10.20;92.70;;;;;;5068231;28;20729;-60
2021/12/07 11:30:05;;;;;;;26.52;15.65;;;10.20;92.70;;;;;;5065386;28;20058;-60
2021/12/07 11:32:31;;;;;;;26.17;17.25;;;10.10;92.70;;;;;;5062948;28;20594;-59
2021/12/07 11:35:19;;;;;;;22.17;15.73;;;10.10;92.70;;;;;;5067864;28;20035;-60
2021/12/07 11:37:46;;;;;;;22.88;15.55;;;10.10;92.60;;;;;;5071312;28;20033;-59
2021/12/07 11:40:13;;;;;;;22.70;16.45;;;10.00;92.80;;;;;;5072045;28;20029;-59
2021/12/07 11:42:42;;;;;;;22.58;15.15;;;10.00;93.00;;;;;;5061995;28;20035;-61
2021/12/07 11:45:22;;;;;;;23.35;15.55;;;10.00;93.30;;;;;;5068041;28;20043;-61
2021/12/07 11:47:54;;;;;;;24.30;16.75;;;10.10;93.20;;;;;;5059340;28;20508;-59
2021/12/07 11:50:42;;;;;;;23.30;17.58;;;10.10;93.50;;;;;;5064304;28;20085;-60
2021/12/07 11:53:13;;;;;;;24.02;16.10;;;10.20;93.40;;;;;;5062170;28;20571;-61
2021/12/07 11:55:43;;;;;;;24.17;16.27;;;10.20;93.50;;;;;;5067669;28;21603;-61
2021/12/07 11:58:10;;;;;;;24.27;15.82;;;10.30;93.50;;;;;;5066558;28;20033;-61
2021/12/07 12:00:49;;;;;;;23.27;16.38;;;10.30;93.40;;;;;;5066199;28;20059;-60
2021/12/07 12:03:18;;;;;;;28.27;17.35;;;10.40;93.30;;;;;;5061966;28;20066;-60
2021/12/07 12:05:47;;;;;;;23.33;16.23;;;10.40;93.20;;;;;;5063496;28;20479;-63
2021/12/07 12:08:14;;;;;;;21.17;15.63;;;10.40;93.20;;;;;;5065381;28;20178;-59
2021/12/07 12:10:48;;;;;;;17.75;14.15;;;10.50;93.10;;;;;;5062719;28;20032;-61
2021/12/07 12:13:45;;;;;;;17.30;12.77;;;10.50;93.00;;;;;;5053399;28;20064;-60
2021/12/07 12:16:22;;;;;;;28.65;19.77;;;10.60;92.80;;;;;;5054092;28;20032;-61
2021/12/07 12:19:10;;;;;;;23.67;16.55;;;10.60;92.90;;;;;;5063214;28;20494;-59
2021/12/07 12:21:50;;;;;;;27.13;19.70;;;10.60;92.70;;;;;;5068856;28;20044;-58
2021/12/07 12:24:38;;;;;;;23.65;15.70;;;10.70;93.00;;;;;;5064891;28;20028;-59
2021/12/07 12:27:27;;;;;;;22.50;16.23;;;10.70;92.70;;;;;;5067567;28;20749;-60
2021/12/07 12:29:55;;;;;;;21.67;16.00;;;10.70;92.70;;;;;;5062340;28;20028;-60
2021/12/07 12:32:30;;;;;;;22.00;14.63;;;10.70;92.70;;;;;;5066316;28;20036;-62
2021/12/07 12:34:57;;;;;;;22.95;17.98;;;10.70;92.30;;;;;;5057253;28;20028;-63
2021/12/07 12:37:27;;;;;;;24.70;18.45;;;10.70;92.40;;;;;;5060279;28;20645;-59
2021/12/07 12:40:10;;;;;;;23.27;16.73;;;10.70;92.70;;;;;;5063358;28;20161;-61
2021/12/07 12:42:41;;;;;;;20.65;15.43;;;10.70;92.80;;;;;;5063764;28;20037;-58
2021/12/07 12:45:25;;;;;;;13.77;11.02;;;10.70;92.90;;;;;;5065246;28;20436;-58
2021/12/07 12:47:55;;;;;;;13.90;10.48;;;10.70;92.40;;;;;;5063979;28;20778;-59
2021/12/07 12:50:46;;;;;;;12.52;9.07;;;10.70;92.00;;;;;;5061768;28;20047;-58
2021/12/07 12:53:18;;;;;;;15.03;10.57;;;10.60;91.50;;;;;;5063187;28;20032;-53
2021/12/07 12:55:44;;;;;;;13.48;10.13;;;10.50;91.90;;;;;;5060294;28;20116;-60
2021/12/07 12:58:12;;;;;;;31.25;10.48;;;10.40;92.20;;;;;;5064101;28;20020;-62
2021/12/07 13:01:17;;;;;;;26.70;9.93;;;10.40;92.10;;;;;;5059198;28;20046;-63
2021/12/07 13:03:43;;;;;;;33.95;10.63;;;10.30;92.00;;;;;;5065542;28;20049;-61
2021/12/07 13:06:43;;;;;;;26.00;10.38;;;10.20;92.20;;;;;;5063163;28;20028;-62
2021/12/07 13:09:20;;;;;;;29.50;10.25;;;10.20;92.30;;;;;;5055623;28;20650;-61
2021/12/07 13:11:55;;;;;;;17.98;9.90;;;10.10;92.30;;;;;;5061440;28;20036;-62
2021/12/07 13:14:24;;;;;;;17.58;10.82;;;10.00;92.30;;;;;;5059930;28;20710;-63
2021/12/07 13:16:52;;;;;;;16.38;10.55;;;9.90;92.30;;;;;;5057733;28;20520;-63
2021/12/07 13:19:18;;;;;;;15.05;11.35;;;9.90;92.40;;;;;;5060858;28;20044;-63
2021/12/07 13:21:45;;;;;;;14.90;11.57;;;9.80;92.70;;;;;;5051968;28;20073;-62
2021/12/07 13:24:15;;;;;;;18.00;13.60;;;9.80;92.90;;;;;;5054254;28;20089;-62
2021/12/07 13:26:49;;;;;;;17.63;13.95;;;9.80;93.10;;;;;;5048063;28;20028;-62
2021/12/07 13:29:21;;;;;;;16.60;13.38;;;9.80;93.20;;;;;;5050353;28;20054;-61
2021/12/07 13:31:51;;;;;;;15.65;12.50;;;9.90;93.40;;;;;;5050418;28;20517;-61
2021/12/07 13:34:25;;;;;;;14.63;10.50;;;9.90;93.40;;;;;;5057913;28;20102;-62
2021/12/07 13:36:58;;;;;;;13.20;9.35;;;10.00;93.30;;;;;;5050642;28;20035;-62
2021/12/07 13:39:23;;;;;;;15.43;11.00;;;10.00;93.00;;;;;;5059430;28;20107;-62
2021/12/07 13:41:49;;;;;;;13.05;10.20;;;10.00;92.80;;;;;;5058631;28;20920;-61
2021/12/07 13:44:16;;;;;;;12.45;8.90;;;10.00;92.70;;;;;;5062632;28;20036;-61
2021/12/07 13:46:41;;;;;;;13.57;9.63;;;10.00;92.60;;;;;;5050142;28;20024;-62
2021/12/07 13:49:11;;;;;;;10.88;8.80;;;10.00;92.50;;;;;;5052310;28;20059;-62
2021/12/07 13:51:38;;;;;;;9.32;7.30;;;10.00;92.30;;;;;;5055695;28;20048;-62
2021/12/07 13:54:05;;;;;;;7.30;6.13;;;9.90;92.20;;;;;;5058142;28;20053;-62
2021/12/07 13:56:36;;;;;;;6.70;5.90;;;9.90;92.10;;;;;;5064762;28;20500;-62
2021/12/07 13:59:13;;;;;;;6.63;5.83;;;9.90;92.00;;;;;;5062362;28;20082;-63
2021/12/07 14:01:46;;;;;;;7.07;5.38;;;9.80;92.00;;;;;;5054813;28;20272;-61
2021/12/07 14:04:12;;;;;;;6.70;5.72;;;9.80;92.10;;;;;;5060257;28;20047;-62
2021/12/07 14:06:44;;;;;;;7.53;5.78;;;9.80;92.00;;;;;;5059983;28;20036;-62
2021/12/07 14:09:11;;;;;;;6.90;5.72;;;9.70;91.90;;;;;;5058762;28;20081;-63
2021/12/07 14:11:38;;;;;;;7.03;5.65;;;9.70;91.80;;;;;;5065244;28;20032;-63
2021/12/07 14:14:16;;;;;;;8.43;6.38;;;9.70;91.70;;;;;;5054792;28;20502;-63
2021/12/07 14:16:43;;;;;;;9.35;7.38;;;9.60;91.50;;;;;;5061054;28;20606;-61
2021/12/07 14:19:10;;;;;;;9.15;6.18;;;9.50;91.50;;;;;;5065872;28;20032;-62
2021/12/07 14:21:37;;;;;;;7.28;5.57;;;9.50;91.50;;;;;;5057609;28;20053;-62
2021/12/07 14:24:08;;;;;;;5.28;4.60;;;9.40;91.50;;;;;;5059106;28;20036;-63